createdAt,value
2023-01-11T00:00:40.539Z,102035.03
2023-01-11T00:03:07.693Z,102046.00
2023-01-11T00:05:39.346Z,102030.97
2023-01-11T00:08:07.164Z,102033.31
2023-01-11T00:10:34.532Z,102023.75
2023-01-11T00:13:02.247Z,102036.06
2023-01-11T00:15:29.489Z,102022.31
2023-01-11T00:17:57.844Z,102026.50
2023-01-11T00:20:25.527Z,102021.31
2023-01-11T00:22:52.834Z,102024.91
2023-01-11T00:25:20.054Z,102040.25
2023-01-11T00:27:49.945Z,102019.84
2023-01-11T00:30:17.976Z,102019.72
2023-01-11T00:32:45.276Z,102018.16
2023-01-11T00:35:13.230Z,102029.34
2023-01-11T00:37:40.495Z,101993.53
2023-01-11T00:40:08.459Z,102020.75
2023-01-11T00:42:54.356Z,102004.66
2023-01-11T00:45:39.833Z,102017.63
2023-01-11T00:48:07.565Z,102002.19
2023-01-11T00:50:37.171Z,102016.75
2023-01-11T00:53:05.296Z,102030.41
2023-01-11T00:55:32.725Z,102015.94
2023-01-11T00:58:00.602Z,102029.66
2023-01-11T01:00:29.494Z,102024.50
2023-01-11T01:02:56.979Z,102031.31
2023-01-11T01:05:24.142Z,102027.91
2023-01-11T01:07:51.387Z,102003.84
2023-01-11T01:10:19.527Z,102017.59
2023-01-11T01:13:05.511Z,102016.50
2023-01-11T01:15:33.525Z,102007.25
2023-01-11T01:18:00.987Z,102018.34
2023-01-11T01:20:28.369Z,102015.06
2023-01-11T01:22:55.597Z,101996.31
2023-01-11T01:25:22.735Z,102011.72
2023-01-11T01:27:49.842Z,102009.13
2023-01-11T01:30:17.395Z,101984.31
2023-01-11T01:32:44.565Z,102015.91
2023-01-11T01:35:11.810Z,102014.25
2023-01-11T01:37:38.943Z,102010.94
2023-01-11T01:40:06.823Z,102019.47
2023-01-11T01:42:33.977Z,102018.69
2023-01-11T01:45:07.086Z,102011.03
2023-01-11T01:47:53.676Z,102021.09
2023-01-11T01:50:25.208Z,102007.50
2023-01-11T01:52:56.164Z,102010.91
2023-01-11T01:55:26.871Z,101997.38
2023-01-11T01:57:55.675Z,101999.91
2023-01-11T02:00:22.834Z,101999.03
2023-01-11T02:02:50.804Z,101998.97
2023-01-11T02:05:18.729Z,101994.84
2023-01-11T02:07:46.918Z,101994.88
2023-01-11T02:10:17.311Z,101993.22
2023-01-11T02:12:59.237Z,101983.81
2023-01-11T02:15:26.447Z,101983.44
2023-01-11T02:17:53.576Z,101995.47
2023-01-11T02:20:35.142Z,101998.09
2023-01-11T02:23:30.103Z,101990.19
2023-01-11T02:26:34.764Z,101987.66
2023-01-11T02:29:14.178Z,101985.28
2023-01-11T02:31:56.251Z,101998.00
2023-01-11T02:34:48.411Z,101987.19
2023-01-11T02:37:33.692Z,101980.38
2023-01-11T02:40:08.262Z,101990.44
2023-01-11T02:43:12.218Z,101986.16
2023-01-11T02:45:59.821Z,101982.59
2023-01-11T02:48:31.756Z,101979.94
2023-01-11T02:50:59.223Z,101976.50
2023-01-11T02:53:30.205Z,101978.00
2023-01-11T02:56:01.577Z,101974.63
2023-01-11T02:58:33.034Z,101967.16
2023-01-11T03:01:01.209Z,101957.94
2023-01-11T03:03:28.435Z,101966.47
2023-01-11T03:06:02.304Z,101958.06
2023-01-11T03:08:40.733Z,101962.25
2023-01-11T03:11:36.392Z,101972.31
2023-01-11T03:14:14.815Z,101955.31
2023-01-11T03:17:22.386Z,101966.47
2023-01-11T03:19:54.829Z,101946.91
2023-01-11T03:22:28.776Z,101956.41
2023-01-11T03:25:01.483Z,101947.91
2023-01-11T03:27:42.693Z,101948.78
2023-01-11T03:30:24.043Z,101952.06
2023-01-11T03:33:02.043Z,101942.56
2023-01-11T03:35:59.452Z,101940.03
2023-01-11T03:38:58.171Z,101940.97
2023-01-11T03:41:30.031Z,101937.38
2023-01-11T03:44:00.210Z,101945.97
2023-01-11T03:46:32.088Z,101949.53
2023-01-11T03:49:07.967Z,101939.38
2023-01-11T03:51:41.651Z,101942.06
2023-01-11T03:54:13.777Z,101939.31
2023-01-11T03:57:04.234Z,101950.44
2023-01-11T03:59:32.140Z,101944.50
2023-01-11T04:02:00.036Z,101943.63
2023-01-11T04:04:28.060Z,101929.84
2023-01-11T04:06:55.293Z,101960.72
2023-01-11T04:09:22.521Z,101932.63
2023-01-11T04:11:49.687Z,101946.28
2023-01-11T04:14:16.786Z,101939.31
2023-01-11T04:16:43.915Z,101940.88
2023-01-11T04:19:11.136Z,101920.50
2023-01-11T04:21:38.236Z,101928.97
2023-01-11T04:24:05.518Z,101935.00
2023-01-11T04:26:33.264Z,101924.88
2023-01-11T04:29:00.355Z,101920.59
2023-01-11T04:31:27.518Z,101929.06
2023-01-11T04:33:54.629Z,101928.28
2023-01-11T04:36:21.943Z,101929.19
2023-01-11T04:38:49.087Z,101925.53
2023-01-11T04:41:34.538Z,101931.63
2023-01-11T04:44:01.669Z,101915.47
2023-01-11T04:46:28.758Z,101930.63
2023-01-11T04:48:56.512Z,101919.56
2023-01-11T04:51:23.826Z,101921.28
2023-01-11T04:53:51.199Z,101911.16
2023-01-11T04:56:18.948Z,101906.97
2023-01-11T04:58:46.481Z,101905.22
2023-01-11T05:01:18.894Z,101906.94
2023-01-11T05:03:47.211Z,101915.47
2023-01-11T05:06:15.351Z,101912.09
2023-01-11T05:08:51.536Z,101900.22
2023-01-11T05:11:19.102Z,101901.91
2023-01-11T05:13:46.195Z,101903.44
2023-01-11T05:16:23.944Z,101899.84
2023-01-11T05:18:54.133Z,101898.13
2023-01-11T05:21:27.455Z,101894.78
2023-01-11T05:23:54.780Z,101894.00
2023-01-11T05:26:24.276Z,101894.06
2023-01-11T05:28:52.504Z,101893.25
2023-01-11T05:31:19.816Z,101897.38
2023-01-11T05:33:46.974Z,101892.28
2023-01-11T05:36:16.645Z,101894.78
2023-01-11T05:38:46.109Z,101905.16
2023-01-11T05:41:13.525Z,101882.25
2023-01-11T05:43:59.469Z,101888.19
2023-01-11T05:46:27.320Z,101892.41
2023-01-11T05:48:56.006Z,101883.88
2023-01-11T05:51:23.359Z,101884.84
2023-01-11T05:53:50.455Z,101889.16
2023-01-11T05:56:17.539Z,101889.22
2023-01-11T05:58:47.910Z,101878.94
2023-01-11T06:01:15.726Z,101896.00
2023-01-11T06:03:42.841Z,101890.00
2023-01-11T06:06:09.953Z,101893.25
2023-01-11T06:08:37.221Z,101869.44
2023-01-11T06:11:04.635Z,101880.63
2023-01-11T06:13:34.048Z,101884.88
2023-01-11T06:16:12.141Z,101884.06
2023-01-11T06:18:42.471Z,101873.84
2023-01-11T06:21:11.163Z,101885.81
2023-01-11T06:23:41.185Z,101896.06
2023-01-11T06:26:11.264Z,101895.22
2023-01-11T06:28:38.469Z,101881.63
2023-01-11T06:31:07.207Z,101877.28
2023-01-11T06:33:34.531Z,101884.09
2023-01-11T06:36:10.281Z,101885.84
2023-01-11T06:38:38.522Z,101886.66
2023-01-11T06:41:08.501Z,101881.50
2023-01-11T06:43:37.978Z,101881.56
2023-01-11T06:46:05.535Z,101878.25
2023-01-11T06:48:32.747Z,101873.06
2023-01-11T06:51:02.738Z,101859.44
2023-01-11T06:53:29.882Z,101861.13
2023-01-11T06:55:58.644Z,101862.78
2023-01-11T06:58:26.998Z,101871.22
2023-01-11T07:00:57.238Z,101866.22
2023-01-11T07:03:26.020Z,101864.56
2023-01-11T07:05:56.743Z,101875.66
2023-01-11T07:08:25.664Z,101857.78
2023-01-11T07:10:52.970Z,101853.53
2023-01-11T07:13:20.402Z,101857.78
2023-01-11T07:15:50.840Z,101839.03
2023-01-11T07:18:19.323Z,101849.28
2023-01-11T07:20:47.051Z,101847.53
2023-01-11T07:23:14.311Z,101844.16
2023-01-11T07:25:41.676Z,101857.81
2023-01-11T07:28:09.461Z,101850.16
2023-01-11T07:30:56.264Z,101855.28
2023-01-11T07:33:25.281Z,101868.13
2023-01-11T07:35:53.095Z,101862.13
2023-01-11T07:38:20.208Z,101859.56
2023-01-11T07:40:47.457Z,101837.34
2023-01-11T07:43:15.373Z,101842.47
2023-01-11T07:45:49.604Z,101845.91
2023-01-11T07:48:25.261Z,101853.59
2023-01-11T07:50:53.290Z,101851.84
2023-01-11T07:53:20.726Z,101853.56
2023-01-11T07:55:47.882Z,101846.69
2023-01-11T07:58:15.459Z,101839.03
2023-01-11T08:00:43.186Z,101841.56
2023-01-11T08:03:10.856Z,101844.16
2023-01-11T08:05:38.420Z,101848.47
2023-01-11T08:08:06.982Z,101842.44
2023-01-11T08:10:34.433Z,101826.19
2023-01-11T08:13:31.182Z,101827.06
2023-01-11T08:15:59.113Z,101845.88
2023-01-11T08:18:26.310Z,101841.59
2023-01-11T08:20:54.206Z,101845.03
2023-01-11T08:23:21.298Z,101844.19
2023-01-11T08:25:48.657Z,101851.88
2023-01-11T08:28:15.798Z,101839.03
2023-01-11T08:30:44.413Z,101844.19
2023-01-11T08:33:11.865Z,101834.78
2023-01-11T08:35:39.431Z,101822.81
2023-01-11T08:38:06.817Z,101813.38
2023-01-11T08:40:34.447Z,101820.19
2023-01-11T08:43:01.650Z,101818.50
2023-01-11T08:45:29.569Z,101815.06
2023-01-11T08:47:56.705Z,101809.97
2023-01-11T08:50:23.823Z,101811.63
2023-01-11T08:52:51.818Z,101803.00
2023-01-11T08:55:19.795Z,101795.25
2023-01-11T08:57:47.280Z,101795.19
2023-01-11T09:00:15.277Z,101785.72
2023-01-11T09:02:42.831Z,101788.31
2023-01-11T09:05:10.091Z,101778.00
2023-01-11T09:07:37.389Z,101785.88
2023-01-11T09:10:05.383Z,101785.91
2023-01-11T09:12:32.936Z,101787.59
2023-01-11T09:15:00.605Z,101796.06
2023-01-11T09:17:27.902Z,101789.34
2023-01-11T09:19:55.038Z,101778.28
2023-01-11T09:22:22.201Z,101783.38
2023-01-11T09:24:49.433Z,101781.53
2023-01-11T09:27:16.835Z,101772.94
2023-01-11T09:29:44.009Z,101791.72
2023-01-11T09:32:11.254Z,101784.78
2023-01-11T09:34:39.299Z,101775.50
2023-01-11T09:37:07.233Z,101760.19
2023-01-11T09:39:35.330Z,101770.47
2023-01-11T09:42:41.187Z,101762.72
2023-01-11T09:45:27.941Z,101756.63
2023-01-11T09:48:04.863Z,101756.69
2023-01-11T09:50:41.324Z,101751.69
2023-01-11T09:53:28.248Z,101734.66
2023-01-11T09:55:59.696Z,101734.56
2023-01-11T09:58:50.974Z,101727.53
2023-01-11T10:01:20.849Z,101722.31
2023-01-11T10:03:54.348Z,101722.41
2023-01-11T10:06:29.604Z,101721.59
2023-01-11T10:18:26.733Z,101711.94
2023-01-11T10:19:33.523Z,101712.91
2023-01-11T10:22:01.567Z,101704.41
2023-01-11T10:24:37.383Z,101697.50
2023-01-11T10:27:10.819Z,101678.72
2023-01-11T10:29:53.343Z,101696.59
2023-01-11T10:32:46.052Z,101694.66
2023-01-11T10:35:37.278Z,101689.72
2023-01-11T10:38:32.694Z,101684.72
2023-01-11T10:41:34.069Z,101688.22
2023-01-11T10:44:10.203Z,101680.38
2023-01-11T10:46:43.566Z,101682.16
2023-01-11T10:49:41.227Z,101671.88
2023-01-11T10:52:30.238Z,101667.78
2023-01-11T10:54:59.218Z,101670.41
2023-01-11T10:58:01.422Z,101674.72
2023-01-11T11:00:38.806Z,101652.44
2023-01-11T11:03:16.543Z,101671.03
2023-01-11T11:05:49.649Z,101660.81
2023-01-11T11:08:28.090Z,101655.91
2023-01-11T11:11:06.807Z,101640.41
2023-01-11T11:14:02.323Z,101660.94
2023-01-11T11:16:48.095Z,101654.88
2023-01-11T11:19:20.348Z,101638.63
2023-01-11T11:21:48.545Z,101652.25
2023-01-11T11:24:23.180Z,101645.13
2023-01-11T11:26:58.239Z,101641.75
2023-01-11T11:29:30.709Z,101631.25
2023-01-11T11:32:01.245Z,101632.91
2023-01-11T11:34:28.894Z,101620.88
2023-01-11T11:36:59.074Z,101626.78
2023-01-11T11:39:33.267Z,101614.66
2023-01-11T11:42:14.573Z,101617.06
2023-01-11T11:44:41.714Z,101606.09
2023-01-11T11:47:16.520Z,101605.13
2023-01-11T11:49:44.028Z,101601.50
2023-01-11T11:52:17.813Z,101591.25
2023-01-11T11:54:57.129Z,101598.88
2023-01-11T11:57:28.467Z,101600.66
2023-01-11T12:00:09.263Z,101605.78
2023-01-11T12:02:43.335Z,101601.63
2023-01-11T12:05:11.223Z,101585.63
2023-01-11T12:07:54.359Z,101577.16
2023-01-11T12:10:25.012Z,101564.13
2023-01-11T12:13:04.060Z,101575.06
2023-01-11T12:15:33.005Z,101588.84
2023-01-11T12:18:21.779Z,101583.69
2023-01-11T12:20:49.656Z,101585.50
2023-01-11T12:23:22.172Z,101589.72
2023-01-11T12:26:13.423Z,101582.91
2023-01-11T12:29:06.061Z,101580.28
2023-01-11T12:31:54.682Z,101583.78
2023-01-11T12:34:46.699Z,101575.22
2023-01-11T12:37:32.250Z,101593.03
2023-01-11T12:40:27.261Z,101587.16
2023-01-11T12:43:06.119Z,101574.97
2023-01-11T12:45:47.365Z,101568.97
2023-01-11T12:48:42.221Z,101566.34
2023-01-11T12:51:24.281Z,101573.97
2023-01-11T12:54:17.415Z,101560.19
2023-01-11T12:56:54.152Z,101563.81
2023-01-11T12:59:21.166Z,101561.44
2023-01-11T13:02:12.782Z,101562.19
2023-01-11T13:05:04.102Z,101552.72
2023-01-11T13:08:01.010Z,101564.84
2023-01-11T13:10:41.622Z,101560.50
2023-01-11T13:13:26.801Z,101561.19
2023-01-11T13:16:18.962Z,101564.00
2023-01-11T13:19:00.788Z,101571.81
2023-01-11T13:21:53.551Z,101569.09
2023-01-11T13:24:26.658Z,101564.59
2023-01-11T13:27:06.170Z,101544.41
2023-01-11T13:29:48.417Z,101554.31
2023-01-11T13:32:22.512Z,101560.50
2023-01-11T13:34:58.542Z,101558.72
2023-01-11T13:37:34.371Z,101557.84
2023-01-11T13:40:17.769Z,101564.78
2023-01-11T13:42:59.529Z,101562.31
2023-01-11T13:45:35.457Z,101556.06
2023-01-11T13:48:12.623Z,101554.44
2023-01-11T13:51:04.674Z,101541.66
2023-01-11T13:53:44.089Z,101552.69
2023-01-11T13:56:23.942Z,101547.59
2023-01-11T13:58:53.906Z,101558.81
2023-01-11T14:01:40.820Z,101542.50
2023-01-11T14:04:15.994Z,101547.56
2023-01-11T14:06:56.764Z,101547.59
2023-01-11T14:09:54.577Z,101531.41
2023-01-11T14:12:43.300Z,101547.59
2023-01-11T14:15:49.391Z,101543.06
2023-01-11T14:18:31.763Z,101547.38
2023-01-11T14:21:12.824Z,101544.91
2023-01-11T14:24:01.268Z,101551.16
2023-01-11T14:26:35.802Z,101548.59
2023-01-11T14:29:25.701Z,101540.06
2023-01-11T14:32:21.579Z,101549.47
2023-01-11T14:35:07.856Z,101537.56
2023-01-11T14:38:05.808Z,101545.94
2023-01-11T14:40:58.260Z,101532.72
2023-01-11T14:44:02.096Z,101525.41
2023-01-11T14:46:35.288Z,101533.44
2023-01-11T14:49:20.506Z,101541.06
2023-01-11T14:51:53.134Z,101540.84
2023-01-11T14:54:32.977Z,101539.09
2023-01-11T14:57:00.543Z,101521.22
2023-01-11T14:59:30.638Z,101546.81
2023-01-11T15:02:03.903Z,101537.13
2023-01-11T15:04:37.128Z,101526.94
2023-01-11T15:07:23.451Z,101531.50
2023-01-11T15:09:56.458Z,101517.13
2023-01-11T15:12:31.946Z,101526.59
2023-01-11T15:15:01.993Z,101536.78
2023-01-11T15:17:50.322Z,101509.63
2023-01-11T15:20:19.346Z,101537.66
2023-01-11T15:22:57.285Z,101528.38
2023-01-11T15:25:30.902Z,101506.16
2023-01-11T15:28:04.852Z,101534.19
2023-01-11T15:30:31.869Z,101528.06
2023-01-11T15:33:17.370Z,101516.16
2023-01-11T15:35:56.558Z,101511.16
2023-01-11T15:38:49.387Z,101510.25
2023-01-11T15:41:52.171Z,101514.44
2023-01-11T15:44:42.468Z,101510.84
2023-01-11T15:47:48.891Z,101521.97
2023-01-11T15:51:07.918Z,101529.59
2023-01-11T15:54:05.850Z,101530.56
2023-01-11T15:56:54.537Z,101530.81
2023-01-11T15:59:44.775Z,101517.03
2023-01-11T16:02:14.904Z,101523.88
2023-01-11T16:05:01.511Z,101520.28
2023-01-11T16:07:40.865Z,101504.03
2023-01-11T16:10:31.099Z,101518.63
2023-01-11T16:12:58.121Z,101515.91
2023-01-11T16:15:41.935Z,101513.31
2023-01-11T16:18:24.780Z,101497.09
2023-01-11T16:21:01.370Z,101506.25
2023-01-11T16:23:31.922Z,101499.25
2023-01-11T16:26:00.306Z,101499.59
2023-01-11T16:28:28.593Z,101500.59
2023-01-11T16:31:02.058Z,101492.97
2023-01-11T16:33:31.733Z,101480.69
2023-01-11T16:36:07.574Z,101450.66
2023-01-11T16:39:00.314Z,101453.09
2023-01-11T16:41:32.539Z,101451.56
2023-01-11T16:44:05.773Z,101434.56
2023-01-11T16:47:19.354Z,101441.38
2023-01-11T16:49:49.468Z,101450.72
2023-01-11T16:52:28.626Z,101450.34
2023-01-11T16:54:59.338Z,101445.13
2023-01-11T16:57:41.054Z,101453.38
2023-01-11T17:00:23.598Z,101456.53
2023-01-11T17:03:00.927Z,101462.63
2023-01-11T17:05:28.268Z,101448.16
2023-01-11T17:07:55.329Z,101439.41
2023-01-11T17:10:28.843Z,101452.75
2023-01-11T17:13:38.826Z,101450.13
2023-01-11T17:16:13.702Z,101444.59
2023-01-11T17:18:42.956Z,101431.00
2023-01-11T17:21:30.296Z,101435.28
2023-01-11T17:24:03.443Z,101448.94
2023-01-11T17:26:58.855Z,101441.00
2023-01-11T17:29:29.221Z,101431.34
2023-01-11T17:31:58.749Z,101423.41
2023-01-11T17:34:38.409Z,101418.09
2023-01-11T17:37:14.251Z,101393.78
2023-01-11T17:39:47.659Z,101416.88
2023-01-11T17:42:34.577Z,101416.91
2023-01-11T17:45:13.037Z,101413.59
2023-01-11T17:47:46.822Z,101415.34
2023-01-11T17:50:27.657Z,101415.69
2023-01-11T17:53:26.864Z,101423.00
2023-01-11T17:56:07.358Z,101408.31
2023-01-11T17:58:38.485Z,101412.75
2023-01-11T18:01:08.504Z,101412.03
2023-01-11T18:03:46.452Z,101403.13
2023-01-11T18:06:40.167Z,101385.81
2023-01-11T18:09:20.639Z,101391.13
2023-01-11T18:11:48.719Z,101390.38
2023-01-11T18:14:28.524Z,101387.88
2023-01-11T18:17:01.995Z,101380.06
2023-01-11T18:19:40.458Z,101379.13
2023-01-11T18:22:29.820Z,101386.34
2023-01-11T18:24:59.348Z,101380.16
2023-01-11T18:27:30.229Z,101379.13
2023-01-11T18:30:01.398Z,101392.53
2023-01-11T18:32:35.867Z,101371.19
2023-01-11T18:35:03.669Z,101382.78
2023-01-11T18:37:30.833Z,101377.09
2023-01-11T18:39:58.245Z,101391.47
2023-01-11T18:42:30.113Z,101387.53
2023-01-11T18:44:57.586Z,101393.56
2023-01-11T18:47:27.283Z,101407.69
2023-01-11T18:49:54.643Z,101376.88
2023-01-11T18:52:24.923Z,101408.56
2023-01-11T18:54:52.192Z,101413.25
2023-01-11T18:57:19.520Z,101423.28
2023-01-11T18:59:47.034Z,101421.72
2023-01-11T19:02:25.242Z,101415.47
2023-01-11T19:04:54.707Z,101416.47
2023-01-11T19:07:23.246Z,101410.28
2023-01-11T19:09:50.557Z,101425.03
2023-01-11T19:12:18.435Z,101418.78
2023-01-11T19:14:45.687Z,101419.22
2023-01-11T19:17:13.655Z,101421.63
2023-01-11T19:19:41.184Z,101430.81
2023-01-11T19:22:08.811Z,101423.34
2023-01-11T19:24:36.116Z,101418.91
2023-01-11T19:27:03.747Z,101420.00
2023-01-11T19:29:31.436Z,101414.53
2023-01-11T19:31:58.585Z,101424.56
2023-01-11T19:34:25.861Z,101394.66
2023-01-11T19:36:53.296Z,101408.19
2023-01-11T19:39:20.423Z,101411.97
2023-01-11T19:42:03.211Z,101414.25
2023-01-11T19:44:33.215Z,101413.78
2023-01-11T19:47:17.253Z,101414.56
2023-01-11T19:49:44.590Z,101414.91
2023-01-11T19:52:14.536Z,101405.88
2023-01-11T19:54:43.178Z,101396.31
2023-01-11T19:57:15.702Z,101385.94
2023-01-11T19:59:42.888Z,101389.19
2023-01-11T20:02:14.928Z,101387.44
2023-01-11T20:04:42.757Z,101388.91
2023-01-11T20:07:11.380Z,101358.56
2023-01-11T20:09:38.618Z,101377.00
2023-01-11T20:12:07.034Z,101385.63
2023-01-11T20:14:34.640Z,101386.25
2023-01-11T20:17:02.333Z,101375.03
2023-01-11T20:19:29.802Z,101380.03
2023-01-11T20:21:56.869Z,101377.53
2023-01-11T20:24:30.352Z,101378.00
2023-01-11T20:27:03.104Z,101373.06
2023-01-11T20:29:30.261Z,101373.84
2023-01-11T20:32:13.351Z,101366.63
2023-01-11T20:34:44.816Z,101373.53
2023-01-11T20:37:11.916Z,101381.59
2023-01-11T20:39:38.984Z,101372.22
2023-01-11T20:42:06.075Z,101372.78
2023-01-11T20:44:33.214Z,101380.50
2023-01-11T20:47:00.754Z,101375.78
2023-01-11T20:49:31.403Z,101380.31
2023-01-11T20:51:59.088Z,101379.25
2023-01-11T20:54:26.404Z,101373.41
2023-01-11T20:56:53.675Z,101369.66
2023-01-11T20:59:20.812Z,101357.44
2023-01-11T21:01:49.665Z,101375.34
2023-01-11T21:04:17.910Z,101360.00
2023-01-11T21:06:47.993Z,101361.97
2023-01-11T21:09:17.540Z,101359.78
2023-01-11T21:11:48.727Z,101351.22
2023-01-11T21:14:15.828Z,101350.34
2023-01-11T21:16:44.397Z,101362.84
2023-01-11T21:19:13.266Z,101369.13
2023-01-11T21:21:41.152Z,101363.97
2023-01-11T21:24:11.212Z,101359.38
2023-01-11T21:26:38.375Z,101348.94
2023-01-11T21:29:06.337Z,101352.34
2023-01-11T21:31:35.486Z,101341.31
2023-01-11T21:34:04.156Z,101362.31
2023-01-11T21:36:32.275Z,101345.84
2023-01-11T21:39:00.652Z,101342.47
2023-01-11T21:41:48.314Z,101345.88
2023-01-11T21:44:16.730Z,101349.22
2023-01-11T21:46:44.161Z,101342.03
2023-01-11T21:49:12.143Z,101345.59
2023-01-11T21:51:58.524Z,101342.31
2023-01-11T21:54:25.752Z,101343.63
2023-01-11T21:56:52.836Z,101343.56
2023-01-11T21:59:20.526Z,101342.00
2023-01-11T22:01:49.459Z,101345.50
2023-01-11T22:04:18.949Z,101343.47
2023-01-11T22:06:51.201Z,101328.69
2023-01-11T22:09:19.637Z,101341.88
2023-01-11T22:11:47.308Z,101336.53
2023-01-11T22:14:14.519Z,101341.66
2023-01-11T22:16:41.718Z,101339.91
2023-01-11T22:19:09.094Z,101338.38
2023-01-11T22:21:37.782Z,101339.59
2023-01-11T22:24:07.782Z,101332.47
2023-01-11T22:26:38.832Z,101339.91
2023-01-11T22:29:17.366Z,101345.13
2023-01-11T22:31:54.994Z,101342.56
2023-01-11T22:34:23.585Z,101342.56
2023-01-11T22:36:51.150Z,101337.31
2023-01-11T22:39:21.746Z,101332.94
2023-01-11T22:41:49.315Z,101326.88
2023-01-11T22:44:18.227Z,101324.66
2023-01-11T22:46:46.411Z,101322.31
2023-01-11T22:49:13.857Z,101322.75
2023-01-11T22:51:42.343Z,101299.13
2023-01-11T22:54:10.929Z,101322.69
2023-01-11T22:56:38.384Z,101329.38
2023-01-11T22:59:05.998Z,101311.94
2023-01-11T23:01:38.601Z,101312.47
2023-01-11T23:04:08.713Z,101312.97
2023-01-11T23:06:38.497Z,101307.38
2023-01-11T23:09:09.489Z,101295.34
2023-01-11T23:11:56.059Z,101298.91
2023-01-11T23:14:30.488Z,101297.91
2023-01-11T23:17:07.646Z,101281.50
2023-01-11T23:19:37.112Z,101287.03
2023-01-11T23:22:04.984Z,101290.28
2023-01-11T23:24:32.716Z,101292.13
2023-01-11T23:26:59.991Z,101291.47
2023-01-11T23:29:27.551Z,101286.31
2023-01-11T23:31:54.744Z,101286.91
2023-01-11T23:34:22.011Z,101276.47
2023-01-11T23:36:49.081Z,101282.28
2023-01-11T23:39:18.761Z,101287.09
2023-01-11T23:42:04.869Z,101279.81
2023-01-11T23:44:32.264Z,101267.78
2023-01-11T23:47:18.097Z,101286.97
2023-01-11T23:49:45.616Z,101282.97
2023-01-11T23:52:12.748Z,101285.38
2023-01-11T23:54:40.001Z,101287.25
2023-01-11T23:57:07.625Z,101281.81
2023-01-11T23:59:34.723Z,101279.00
